createdAt,value
2023-04-23T00:02:42.660Z,100.00
2023-04-23T00:06:47.262Z,100.00
2023-04-23T00:10:49.756Z,100.00
2023-04-23T00:14:52.225Z,100.00
2023-04-23T00:18:54.315Z,100.00
2023-04-23T00:22:56.393Z,100.00
2023-04-23T00:26:58.464Z,100.00
2023-04-23T00:31:00.602Z,100.00
2023-04-23T00:35:02.708Z,100.00
2023-04-23T00:39:04.842Z,100.00
2023-04-23T00:43:07.373Z,100.00
2023-04-23T00:47:10.266Z,100.00
2023-04-23T00:51:13.592Z,100.00
2023-04-23T00:55:16.201Z,100.00
2023-04-23T00:59:18.442Z,100.00
2023-04-23T01:03:22.056Z,100.00
2023-04-23T01:07:24.524Z,100.00
2023-04-23T01:11:27.088Z,100.00
2023-04-23T01:15:29.116Z,100.00
2023-04-23T01:19:31.987Z,100.00
2023-04-23T01:23:34.058Z,99.24
2023-04-23T01:27:36.462Z,96.72
2023-04-23T01:31:38.628Z,96.56
2023-04-23T01:35:41.293Z,95.68
2023-04-23T01:39:43.379Z,94.92
2023-04-23T01:43:45.978Z,94.31
2023-04-23T01:47:48.369Z,94.40
2023-04-23T01:51:50.521Z,93.70
2023-04-23T01:55:54.925Z,93.79
2023-04-23T02:00:08.108Z,93.58
2023-04-23T02:04:15.245Z,94.94
2023-04-23T02:08:17.558Z,95.59
2023-04-23T02:12:19.604Z,95.40
2023-04-23T02:16:21.721Z,95.93
2023-04-23T02:20:23.909Z,96.49
2023-04-23T02:24:26.021Z,96.83
2023-04-23T02:28:28.243Z,97.68
2023-04-23T02:32:31.103Z,98.64
2023-04-23T02:36:33.325Z,98.65
2023-04-23T02:40:36.158Z,99.23
2023-04-23T02:44:38.174Z,99.53
2023-04-23T02:48:41.483Z,99.66
2023-04-23T02:52:43.743Z,100.00
2023-04-23T02:56:46.382Z,100.00
2023-04-23T03:00:48.823Z,100.00
2023-04-23T03:04:51.728Z,100.00
2023-04-23T03:08:53.773Z,100.00
2023-04-23T03:12:56.492Z,100.00
2023-04-23T03:16:59.944Z,100.00
2023-04-23T03:21:02.510Z,100.00
2023-04-23T03:25:05.163Z,100.00
2023-04-23T03:29:07.599Z,100.00
2023-04-23T03:33:09.914Z,100.00
2023-04-23T03:37:13.326Z,99.73
2023-04-23T03:41:16.384Z,99.84
2023-04-23T03:45:19.098Z,99.32
2023-04-23T03:49:21.677Z,99.40
2023-04-23T03:53:23.704Z,98.92
2023-04-23T03:57:54.583Z,98.69
2023-04-23T04:01:59.747Z,98.90
2023-04-23T04:06:02.494Z,98.80
2023-04-23T04:10:06.300Z,99.35
2023-04-23T04:14:08.381Z,98.99
2023-04-23T04:18:10.631Z,99.28
2023-04-23T04:22:12.752Z,98.56
2023-04-23T04:26:15.339Z,98.49
2023-04-23T04:30:17.456Z,99.50
2023-04-23T04:34:20.241Z,100.00
2023-04-23T04:38:22.376Z,100.00
2023-04-23T04:42:25.461Z,100.00
2023-04-23T04:46:29.100Z,100.00
2023-04-23T04:50:31.390Z,100.00
2023-04-23T04:54:33.441Z,100.00
2023-04-23T04:58:35.656Z,99.92
2023-04-23T05:02:37.876Z,99.88
2023-04-23T05:06:40.082Z,100.00
2023-04-23T05:10:45.888Z,100.00
2023-04-23T05:14:47.939Z,100.00
2023-04-23T05:18:50.093Z,98.79
2023-04-23T05:22:52.242Z,98.39
2023-04-23T05:26:54.962Z,98.40
2023-04-23T05:30:57.361Z,98.31
2023-04-23T05:35:02.885Z,99.27
2023-04-23T05:39:04.893Z,99.38
2023-04-23T05:43:06.941Z,99.56
2023-04-23T05:47:10.927Z,99.63
2023-04-23T05:51:13.446Z,95.37
2023-04-23T05:55:20.439Z,88.84
2023-04-23T05:59:23.150Z,78.80
2023-04-23T06:03:26.668Z,79.09
2023-04-23T06:07:28.839Z,81.87
2023-04-23T06:11:36.056Z,83.75
2023-04-23T06:15:38.406Z,85.81
2023-04-23T06:19:41.512Z,88.06
2023-04-23T06:23:43.559Z,88.15
2023-04-23T06:27:45.687Z,88.45
2023-04-23T06:31:58.973Z,87.46
2023-04-23T06:36:01.082Z,87.70
2023-04-23T06:40:03.434Z,86.46
2023-04-23T06:44:06.107Z,84.71
2023-04-23T06:48:11.400Z,74.95
2023-04-23T06:52:13.494Z,63.71
2023-04-23T06:56:15.549Z,64.27
2023-04-23T07:00:17.909Z,62.36
2023-04-23T07:04:21.656Z,56.76
2023-04-23T07:08:23.744Z,52.75
2023-04-23T07:12:25.791Z,55.58
2023-04-23T07:16:32.066Z,58.23
2023-04-23T07:20:34.296Z,60.97
2023-04-23T07:24:36.347Z,61.36
2023-04-23T07:28:38.391Z,62.32
2023-04-23T07:32:40.629Z,64.60
2023-04-23T07:36:42.777Z,66.09
2023-04-23T07:40:44.948Z,65.48
2023-04-23T07:44:47.016Z,66.15
2023-04-23T07:48:49.205Z,66.20
2023-04-23T07:52:51.965Z,64.63
2023-04-23T07:56:54.004Z,64.36
2023-04-23T08:00:56.058Z,66.46
2023-04-23T08:04:58.172Z,68.88
2023-04-23T08:09:00.551Z,69.07
2023-04-23T08:13:03.162Z,67.14
2023-04-23T08:17:05.266Z,68.20
2023-04-23T08:21:07.631Z,69.11
2023-04-23T08:25:10.056Z,68.52
2023-04-23T08:29:12.145Z,70.17
2023-04-23T08:33:14.641Z,70.31
2023-04-23T08:37:29.676Z,68.43
2023-04-23T08:41:39.597Z,66.76
2023-04-23T08:45:45.870Z,65.71
2023-04-23T08:49:50.677Z,65.46
2023-04-23T08:53:58.168Z,63.81
2023-04-23T08:58:01.408Z,63.87
2023-04-23T09:02:08.322Z,63.64
2023-04-23T09:06:10.952Z,64.07
2023-04-23T09:10:16.908Z,62.98
2023-04-23T09:14:22.552Z,64.14
2023-04-23T09:18:24.804Z,64.14
2023-04-23T09:22:46.752Z,63.89
2023-04-23T09:26:51.831Z,63.82
2023-04-23T09:30:53.872Z,64.24
2023-04-23T09:34:59.139Z,61.10
2023-04-23T09:39:01.171Z,60.68
2023-04-23T09:43:04.649Z,59.15
2023-04-23T09:47:10.070Z,56.81
2023-04-23T09:51:15.112Z,54.80
2023-04-23T09:55:28.333Z,53.78
2023-04-23T10:03:36.256Z,54.53
2023-04-23T10:07:39.832Z,55.28
2023-04-23T10:11:42.768Z,55.30
2023-04-23T10:15:47.275Z,56.27
2023-04-23T10:19:50.679Z,56.94
2023-04-23T10:23:52.894Z,57.56
2023-04-23T10:27:56.271Z,53.95
2023-04-23T10:32:03.885Z,53.76
2023-04-23T10:36:06.781Z,51.82
2023-04-23T10:40:18.782Z,50.88
2023-04-23T10:44:44.944Z,51.54
2023-04-23T10:49:06.949Z,50.46
2023-04-23T10:53:18.573Z,50.74
2023-04-23T10:57:20.861Z,50.35
2023-04-23T11:01:27.953Z,49.49
2023-04-23T11:05:30.008Z,50.29
2023-04-23T11:09:34.835Z,51.71
2023-04-23T11:13:52.749Z,52.56
2023-04-23T11:17:54.818Z,53.79
2023-04-23T11:22:04.413Z,54.79
2023-04-23T11:26:06.534Z,60.11
2023-04-23T11:30:13.756Z,62.79
2023-04-23T11:34:17.389Z,64.68
2023-04-23T11:38:21.460Z,62.84
2023-04-23T11:42:23.477Z,63.21
2023-04-23T11:46:26.065Z,61.67
2023-04-23T11:50:33.516Z,59.27
2023-04-23T11:54:36.034Z,56.92
2023-04-23T11:58:39.412Z,57.81
2023-04-23T12:02:55.804Z,56.49
2023-04-23T12:06:59.051Z,59.80
2023-04-23T12:11:03.127Z,61.40
2023-04-23T12:15:07.156Z,60.30
2023-04-23T12:19:10.667Z,56.20
2023-04-23T12:23:12.700Z,52.85
2023-04-23T12:27:20.359Z,50.75
2023-04-23T12:31:24.620Z,50.65
2023-04-23T12:35:43.581Z,51.14
2023-04-23T12:39:45.891Z,51.04
2023-04-23T12:43:50.221Z,50.71
2023-04-23T12:47:53.728Z,50.47
2023-04-23T12:52:02.682Z,50.76
2023-04-23T12:56:04.950Z,49.86
2023-04-23T13:00:08.892Z,50.21
2023-04-23T13:04:11.145Z,50.51
2023-04-23T13:08:13.292Z,50.22
2023-04-23T13:12:15.368Z,49.43
2023-04-23T13:16:17.821Z,50.01
2023-04-23T13:20:19.931Z,50.06
2023-04-23T13:24:21.997Z,50.12
2023-04-23T13:28:24.052Z,50.25
2023-04-23T13:32:28.326Z,50.90
2023-04-23T13:36:30.503Z,50.71
2023-04-23T13:40:32.635Z,49.18
2023-04-23T13:44:34.646Z,49.65
2023-04-23T13:48:36.704Z,50.57
2023-04-23T13:52:39.797Z,51.35
2023-04-23T13:56:41.884Z,50.97
2023-04-23T14:00:44.051Z,51.06
2023-04-23T14:04:46.068Z,50.35
2023-04-23T14:08:48.127Z,51.04
2023-04-23T14:12:51.366Z,50.79
2023-04-23T14:16:53.377Z,49.29
2023-04-23T14:20:55.446Z,47.80
2023-04-23T14:25:02.392Z,47.73
2023-04-23T14:29:11.220Z,47.59
2023-04-23T14:33:13.276Z,47.09
2023-04-23T14:37:17.191Z,46.66
2023-04-23T14:41:19.219Z,45.32
2023-04-23T14:45:21.474Z,46.49
2023-04-23T14:49:24.384Z,46.99
2023-04-23T14:53:27.157Z,45.42
2023-04-23T14:57:29.260Z,44.21
2023-04-23T15:01:31.462Z,43.57
2023-04-23T15:05:33.545Z,44.35
2023-04-23T15:09:35.591Z,44.02
2023-04-23T15:13:49.270Z,44.21
2023-04-23T15:17:51.891Z,44.44
2023-04-23T15:21:53.974Z,44.21
2023-04-23T15:25:56.136Z,43.96
2023-04-23T15:29:58.148Z,43.75
2023-04-23T15:34:00.278Z,43.33
2023-04-23T15:38:02.367Z,43.74
2023-04-23T15:42:05.689Z,44.19
2023-04-23T15:46:07.809Z,44.34
2023-04-23T15:50:10.768Z,44.12
2023-04-23T15:54:12.992Z,44.89
2023-04-23T15:58:14.993Z,44.64
2023-04-23T16:02:17.938Z,44.07
2023-04-23T16:06:20.038Z,43.84
2023-04-23T16:10:22.131Z,44.06
2023-04-23T16:14:24.205Z,44.57
2023-04-23T16:18:26.289Z,44.78
2023-04-23T16:22:28.334Z,44.68
2023-04-23T16:26:30.586Z,45.16
2023-04-23T16:30:32.696Z,45.21
2023-04-23T16:34:34.693Z,45.45
2023-04-23T16:38:36.714Z,45.96
2023-04-23T16:42:39.171Z,47.94
2023-04-23T16:46:41.388Z,53.93
2023-04-23T16:50:44.263Z,61.07
2023-04-23T16:54:49.196Z,65.53
2023-04-23T16:58:51.472Z,69.20
2023-04-23T17:02:53.641Z,72.79
2023-04-23T17:06:55.701Z,74.89
2023-04-23T17:10:57.734Z,76.57
2023-04-23T17:14:59.734Z,78.51
2023-04-23T17:19:01.891Z,78.81
2023-04-23T17:23:03.987Z,78.94
2023-04-23T17:27:06.310Z,79.50
2023-04-23T17:31:08.869Z,80.00
2023-04-23T17:35:11.220Z,81.48
2023-04-23T17:39:13.336Z,81.68
2023-04-23T17:43:16.435Z,82.28
2023-04-23T17:47:18.472Z,82.95
2023-04-23T17:51:21.479Z,83.11
2023-04-23T17:55:24.187Z,84.28
2023-04-23T17:59:26.220Z,84.04
2023-04-23T18:03:30.064Z,83.56
2023-04-23T18:07:32.251Z,79.93
2023-04-23T18:11:34.324Z,80.91
2023-04-23T18:15:36.372Z,81.44
2023-04-23T18:19:38.479Z,80.94
2023-04-23T18:23:40.610Z,82.02
2023-04-23T18:27:42.667Z,82.28
2023-04-23T18:31:44.709Z,82.65
2023-04-23T18:35:52.395Z,83.91
2023-04-23T18:39:54.526Z,84.63
2023-04-23T18:43:57.101Z,87.58
2023-04-23T18:48:27.937Z,93.89
2023-04-23T18:52:29.925Z,97.04
2023-04-23T18:56:32.043Z,98.70
2023-04-23T19:00:34.504Z,96.54
2023-04-23T19:04:36.723Z,96.63
2023-04-23T19:08:38.994Z,96.86
2023-04-23T19:12:40.975Z,97.25
2023-04-23T19:16:42.994Z,97.84
2023-04-23T19:20:45.040Z,98.42
2023-04-23T19:24:47.286Z,98.47
2023-04-23T19:28:49.316Z,98.90
2023-04-23T19:32:51.405Z,98.85
2023-04-23T19:36:53.661Z,99.21
2023-04-23T19:40:56.844Z,99.16
2023-04-23T19:44:58.857Z,98.96
2023-04-23T19:49:00.911Z,99.84
2023-04-23T19:53:05.663Z,100.00
2023-04-23T19:57:07.725Z,100.00
2023-04-23T20:01:10.628Z,99.16
2023-04-23T20:05:12.688Z,98.99
2023-04-23T20:09:21.856Z,98.38
2023-04-23T20:13:23.992Z,98.54
2023-04-23T20:17:26.981Z,98.72
2023-04-23T20:21:29.042Z,99.18
2023-04-23T20:25:31.961Z,100.00
2023-04-23T20:29:34.065Z,98.71
2023-04-23T20:33:36.059Z,98.03
2023-04-23T20:37:38.553Z,97.21
2023-04-23T20:41:40.942Z,96.17
2023-04-23T20:45:43.154Z,95.17
2023-04-23T20:49:45.510Z,94.00
2023-04-23T20:53:47.917Z,93.12
2023-04-23T20:57:50.183Z,91.65
2023-04-23T21:01:52.687Z,89.94
2023-04-23T21:05:54.780Z,89.29
2023-04-23T21:09:57.019Z,87.48
2023-04-23T21:14:00.902Z,86.94
2023-04-23T21:18:04.069Z,87.07
2023-04-23T21:22:06.143Z,86.21
2023-04-23T21:26:08.286Z,86.31
2023-04-23T21:30:23.653Z,86.21
2023-04-23T21:34:25.774Z,85.58
2023-04-23T21:38:27.769Z,85.91
2023-04-23T21:42:29.835Z,88.11
2023-04-23T21:46:32.189Z,85.55
2023-04-23T21:50:34.417Z,85.87
2023-04-23T21:54:36.468Z,86.21
2023-04-23T21:58:38.468Z,87.81
2023-04-23T22:02:42.107Z,87.96
2023-04-23T22:06:46.450Z,88.99
2023-04-23T22:10:48.747Z,90.18
2023-04-23T22:14:50.912Z,91.32
2023-04-23T22:18:53.553Z,91.38
2023-04-23T22:22:56.112Z,91.23
2023-04-23T22:26:58.998Z,91.43
2023-04-23T22:31:01.390Z,91.88
2023-04-23T22:35:04.626Z,92.22
2023-04-23T22:39:07.008Z,92.27
2023-04-23T22:43:09.025Z,92.55
2023-04-23T22:47:11.913Z,92.79
2023-04-23T22:51:14.430Z,93.50
2023-04-23T22:55:16.446Z,93.07
2023-04-23T22:59:19.105Z,93.54
2023-04-23T23:03:21.603Z,94.80
2023-04-23T23:07:23.738Z,95.44
2023-04-23T23:11:28.641Z,95.55
2023-04-23T23:15:30.749Z,95.78
2023-04-23T23:19:32.773Z,96.41
2023-04-23T23:23:34.930Z,97.63
2023-04-23T23:27:37.111Z,98.18
2023-04-23T23:31:39.164Z,98.69
2023-04-23T23:35:42.612Z,99.34
2023-04-23T23:39:45.663Z,99.61
2023-04-23T23:43:47.620Z,99.03
2023-04-23T23:47:49.646Z,98.68
2023-04-23T23:51:51.745Z,98.10
2023-04-23T23:55:53.729Z,97.48
2023-04-23T23:59:56.145Z,96.92
